Time;durP1;ratioP1;P1;durP2;ratioP2;P2;SDS_P1;SDS_P2;PMS_P1;PMS_P2;Temp;Humidity;BMP_temperature;BMP_pressure;BME280_temperature;BME280_humidity;BME280_pressure;Samples;Min_cycle;Max_cycle;Signal;HPM_P1;HPM_P2
2022/07/23 00:05:29;;;;;;;8.23;6.43;;;23.60;73.10;;;;;;20922746;28;20322;-70
2022/07/23 00:15:31;;;;;;;14.00;6.60;;;23.50;73.50;;;;;;20920494;28;20212;-70
2022/07/23 00:25:33;;;;;;;9.00;6.37;;;23.40;74.20;;;;;;20920643;28;20261;-70
2022/07/23 00:35:40;;;;;;;9.47;7.20;;;23.30;74.80;;;;;;20920318;28;20570;-70
2022/07/23 00:45:42;;;;;;;10.83;6.87;;;23.30;76.00;;;;;;20918237;28;20240;-70
2022/07/23 00:55:43;;;;;;;8.70;6.70;;;23.30;76.30;;;;;;20914683;28;20212;-70
2022/07/23 01:05:45;;;;;;;8.37;6.97;;;23.10;77.00;;;;;;20917951;28;20699;-69
2022/07/23 01:15:47;;;;;;;9.97;6.60;;;23.10;78.00;;;;;;20917096;28;20607;-70
2022/07/23 01:25:52;;;;;;;9.70;6.73;;;23.00;78.60;;;;;;20916073;28;20699;-70
2022/07/23 01:35:54;;;;;;;17.60;7.00;;;22.90;78.80;;;;;;20915935;28;20204;-69
2022/07/23 01:45:55;;;;;;;10.90;6.10;;;22.80;80.00;;;;;;20914473;28;20247;-70
2022/07/23 01:55:59;;;;;;;10.00;7.13;;;22.90;80.40;;;;;;20913980;28;20219;-70
2022/07/23 02:06:00;;;;;;;10.80;7.10;;;22.80;80.80;;;;;;20913689;28;20237;-69
2022/07/23 02:16:02;;;;;;;8.97;7.37;;;22.80;81.10;;;;;;20912867;28;20214;-70
2022/07/23 02:26:04;;;;;;;9.87;7.00;;;22.80;81.20;;;;;;20911218;28;20323;-70
2022/07/23 02:36:06;;;;;;;11.30;7.40;;;22.70;81.50;;;;;;20912225;28;20744;-70
2022/07/23 02:46:08;;;;;;;9.00;7.00;;;22.60;81.90;;;;;;20910673;28;20239;-70
2022/07/23 02:56:10;;;;;;;10.20;7.00;;;22.50;82.10;;;;;;20908936;28;20214;-70
2022/07/23 03:06:11;;;;;;;9.60;7.03;;;22.40;82.70;;;;;;20911261;28;20232;-69
2022/07/23 03:16:13;;;;;;;15.73;7.40;;;22.40;83.20;;;;;;20910769;28;20690;-69
2022/07/23 03:26:15;;;;;;;10.47;7.03;;;22.20;83.60;;;;;;20925529;28;20236;-69
2022/07/23 03:36:17;;;;;;;10.60;7.30;;;22.20;84.20;;;;;;20925068;28;20214;-70
2022/07/23 03:46:22;;;;;;;11.57;7.87;;;22.30;84.60;;;;;;20923871;28;20261;-71
2022/07/23 03:56:23;;;;;;;12.07;7.17;;;22.20;84.70;;;;;;20923378;28;20815;-70
2022/07/23 04:06:25;;;;;;;8.87;7.30;;;22.30;84.70;;;;;;20922454;28;20572;-71
2022/07/23 04:16:28;;;;;;;8.23;6.80;;;22.20;84.20;;;;;;20922100;28;20214;-71
2022/07/23 04:26:30;;;;;;;10.37;6.83;;;22.10;84.60;;;;;;20920749;28;20235;-70
2022/07/23 04:36:32;;;;;;;10.87;6.70;;;22.10;85.30;;;;;;20918911;28;20291;-70
2022/07/23 04:46:33;;;;;;;12.93;6.80;;;22.20;85.90;;;;;;20918674;28;20239;-70
2022/07/23 04:56:35;;;;;;;9.27;6.80;;;22.10;86.60;;;;;;20914981;28;20208;-71
2022/07/23 05:06:37;;;;;;;8.40;6.17;;;22.10;87.10;;;;;;20916708;28;20235;-71
2022/07/23 05:16:39;;;;;;;12.90;7.10;;;22.30;87.70;;;;;;20916333;28;20672;-70
2022/07/23 05:26:40;;;;;;;12.33;7.00;;;22.40;87.20;;;;;;20915258;28;20236;-65
2022/07/23 05:36:42;;;;;;;11.47;7.00;;;22.40;87.70;;;;;;20915247;28;20211;-72
2022/07/23 05:46:44;;;;;;;9.97;7.80;;;22.40;88.10;;;;;;20913986;28;20710;-70
2022/07/23 05:56:47;;;;;;;12.80;9.70;;;22.50;89.00;;;;;;20913570;28;20254;-70
2022/07/23 06:06:49;;;;;;;11.33;9.70;;;22.50;90.00;;;;;;20912216;28;20262;-70
2022/07/23 06:16:50;;;;;;;11.07;9.13;;;22.20;90.90;;;;;;20911161;28;20222;-69
2022/07/23 06:26:52;;;;;;;11.90;9.00;;;22.30;91.70;;;;;;20911250;28;20250;-71
2022/07/23 06:36:54;;;;;;;10.10;8.43;;;22.30;92.20;;;;;;20992283;28;20294;-74
2022/07/23 06:46:56;;;;;;;12.63;8.27;;;22.40;92.50;;;;;;20967643;28;20243;-70
2022/07/23 06:56:58;;;;;;;12.77;8.80;;;22.30;92.60;;;;;;20917267;28;20200;-72
2022/07/23 07:07:00;;;;;;;12.50;9.80;;;22.00;93.30;;;;;;20925161;28;20235;-72
2022/07/23 07:17:01;;;;;;;13.97;8.30;;;21.90;94.20;;;;;;20924510;28;20211;-74
2022/07/23 07:27:03;;;;;;;13.17;8.37;;;21.90;94.50;;;;;;20924952;28;20246;-74
2022/07/23 07:37:05;;;;;;;16.93;8.17;;;21.90;94.80;;;;;;20924345;28;20204;-78
2022/07/23 07:47:07;;;;;;;16.37;9.83;;;22.00;95.30;;;;;;20923256;28;20246;-72
2022/07/23 07:57:09;;;;;;;12.30;8.17;;;22.20;95.40;;;;;;20952157;28;20553;-70
2022/07/23 08:07:11;;;;;;;8.83;6.57;;;22.30;95.60;;;;;;21001408;28;20594;-74
2022/07/23 08:17:13;;;;;;;10.50;6.70;;;22.70;95.30;;;;;;21003982;28;20211;-72
2022/07/23 08:27:16;;;;;;;9.63;6.70;;;22.90;94.90;;;;;;21001511;28;20235;-74
2022/07/23 08:37:17;;;;;;;8.23;6.83;;;23.10;94.50;;;;;;21004032;28;20223;-73
2022/07/23 08:47:19;;;;;;;7.70;6.40;;;23.10;94.20;;;;;;20982097;28;20239;-74
2022/07/23 08:57:21;;;;;;;7.23;6.10;;;23.30;93.90;;;;;;20914986;28;20632;-73
2022/07/23 09:07:23;;;;;;;10.13;6.40;;;23.40;93.40;;;;;;20917337;28;20330;-73
2022/07/23 09:17:25;;;;;;;7.80;6.37;;;23.30;92.90;;;;;;20916626;28;20291;-73
2022/07/23 09:27:55;;;;;;;10.63;6.10;;;23.30;92.60;;;;;;20915969;28;20235;-73
2022/07/23 09:38:02;;;;;;;9.37;6.70;;;23.50;91.90;;;;;;20915507;28;20739;-71
2022/07/23 09:48:13;;;;;;;9.97;6.27;;;23.30;91.70;;;;;;20914065;28;20323;-73
2022/07/23 09:58:16;;;;;;;9.27;7.00;;;23.70;91.60;;;;;;20912920;28;20199;-73
2022/07/23 10:08:19;;;;;;;9.47;6.77;;;24.00;91.20;;;;;;20911593;28;20246;-73
2022/07/23 10:18:21;;;;;;;9.00;6.60;;;24.50;90.40;;;;;;20913267;28;20208;-74
2022/07/23 10:28:50;;;;;;;8.37;5.73;;;24.80;89.30;;;;;;20911261;28;20240;-73
2022/07/23 10:39:05;;;;;;;7.30;5.93;;;25.20;87.80;;;;;;20911885;28;20208;-73
2022/07/23 10:49:28;;;;;;;7.30;6.13;;;25.30;85.10;;;;;;20910441;28;20254;-73
2022/07/23 10:59:31;;;;;;;8.57;6.20;;;25.40;82.30;;;;;;20908494;28;20698;-74
2022/07/23 11:09:41;;;;;;;6.70;5.87;;;25.60;81.00;;;;;;20910303;28;20250;-73
2022/07/23 11:20:12;;;;;;;10.63;7.70;;;26.00;79.50;;;;;;20910247;28;20217;-73
2022/07/23 11:30:25;;;;;;;6.37;5.77;;;26.10;78.20;;;;;;20909625;28;20235;-71
2022/07/23 11:40:27;;;;;;;10.40;6.40;;;26.10;77.10;;;;;;20914239;28;20227;-72
2022/07/23 11:50:29;;;;;;;10.33;6.80;;;26.40;76.60;;;;;;20921959;28;20235;-72
2022/07/23 12:00:33;;;;;;;17.93;6.70;;;26.70;75.70;;;;;;20922461;28;20291;-73
2022/07/23 12:10:43;;;;;;;7.47;6.60;;;27.10;74.10;;;;;;20921841;28;20703;-74
2022/07/23 12:20:53;;;;;;;6.90;5.90;;;26.90;72.00;;;;;;20920591;28;20204;-73
2022/07/23 12:30:57;;;;;;;9.00;7.43;;;27.30;71.00;;;;;;20920445;28;20238;-73
2022/07/23 12:40:59;;;;;;;8.00;6.60;;;27.50;68.50;;;;;;20919525;28;20319;-73
2022/07/23 12:51:06;;;;;;;8.53;6.10;;;27.90;65.50;;;;;;20917460;28;20686;-74
2022/07/23 13:01:09;;;;;;;7.73;6.07;;;27.60;64.10;;;;;;20914881;28;20291;-74
2022/07/23 13:11:13;;;;;;;5.90;5.30;;;27.60;63.30;;;;;;20917465;28;20758;-73
2022/07/23 13:21:15;;;;;;;6.63;5.37;;;27.70;61.70;;;;;;20916249;28;20560;-72
2022/07/23 13:31:18;;;;;;;9.70;6.57;;;27.80;59.80;;;;;;20996765;28;20632;-73
2022/07/23 13:41:20;;;;;;;6.53;5.60;;;27.80;59.50;;;;;;20997498;28;20263;-72
2022/07/23 13:51:23;;;;;;;6.80;5.63;;;28.00;58.40;;;;;;20995457;28;20385;-72
2022/07/23 14:01:26;;;;;;;7.03;5.70;;;28.10;58.20;;;;;;20996560;28;20210;-72
2022/07/23 14:11:39;;;;;;;6.17;5.57;;;28.00;58.20;;;;;;20993393;28;20238;-72
2022/07/23 14:21:42;;;;;;;5.77;4.80;;;27.90;57.40;;;;;;20992464;28;20214;-70
2022/07/23 14:31:45;;;;;;;6.78;4.88;;;28.10;57.10;;;;;;20997708;28;20789;-72
2022/07/23 14:41:48;;;;;;;7.93;5.25;;;28.50;55.70;;;;;;20994448;28;20238;-69
2022/07/23 14:51:50;;;;;;;6.00;4.90;;;28.50;54.90;;;;;;20954697;28;20318;-71
2022/07/23 15:01:53;;;;;;;5.53;4.78;;;29.00;53.50;;;;;;20908823;28;20204;-70
2022/07/23 15:11:55;;;;;;;6.38;5.22;;;28.80;52.40;;;;;;20910528;28;20323;-73
2022/07/23 15:21:59;;;;;;;8.07;5.00;;;28.60;53.10;;;;;;20926012;28;20218;-70
2022/07/23 15:32:03;;;;;;;7.13;4.82;;;28.50;52.60;;;;;;20925480;28;20718;-72
2022/07/23 15:42:05;;;;;;;7.57;4.85;;;28.60;52.00;;;;;;20924491;28;20246;-72
2022/07/23 15:52:14;;;;;;;5.97;4.80;;;28.50;51.80;;;;;;20922473;28;20239;-71
2022/07/23 16:02:16;;;;;;;7.47;4.90;;;28.40;50.80;;;;;;20923279;28;20215;-71
2022/07/23 16:12:19;;;;;;;7.03;5.28;;;28.30;50.20;;;;;;20922185;28;20235;-72
2022/07/23 16:22:21;;;;;;;5.80;5.03;;;28.40;50.10;;;;;;20921625;28;20291;-72
2022/07/23 16:32:22;;;;;;;8.93;4.60;;;28.50;49.80;;;;;;20921188;28;20240;-71
2022/07/23 16:42:24;;;;;;;7.57;4.68;;;28.70;49.10;;;;;;20948984;28;20235;-72
2022/07/23 16:52:26;;;;;;;5.17;4.57;;;28.40;49.00;;;;;;21001076;28;20239;-72
2022/07/23 17:02:28;;;;;;;4.57;4.10;;;28.20;48.30;;;;;;20999215;28;20214;-72
2022/07/23 17:12:30;;;;;;;5.18;4.43;;;28.00;48.00;;;;;;21000043;28;20257;-72
2022/07/23 17:22:33;;;;;;;4.50;4.00;;;28.00;48.20;;;;;;20999536;28;20207;-71
2022/07/23 17:32:34;;;;;;;6.53;4.33;;;27.90;47.90;;;;;;20998276;28;20246;-71
2022/07/23 17:42:36;;;;;;;8.13;4.07;;;27.80;48.30;;;;;;20996894;28;20728;-71
2022/07/23 17:52:47;;;;;;;6.20;5.53;;;27.60;48.40;;;;;;20996395;28;20239;-69
2022/07/23 18:02:48;;;;;;;6.33;4.80;;;27.60;49.60;;;;;;20996889;28;20207;-69
2022/07/23 18:12:50;;;;;;;6.60;4.60;;;27.50;52.00;;;;;;21000501;28;20229;-70
2022/07/23 18:22:52;;;;;;;9.73;5.37;;;27.30;51.80;;;;;;21076654;28;20658;-71
2022/07/23 18:32:54;;;;;;;7.43;5.23;;;27.00;52.10;;;;;;21077922;28;20670;-71
2022/07/23 18:42:58;;;;;;;9.27;5.50;;;26.80;52.70;;;;;;21059813;28;20238;-70
2022/07/23 18:53:00;;;;;;;12.10;5.43;;;26.50;53.20;;;;;;21047782;28;20674;-71
2022/07/23 19:03:02;;;;;;;10.47;5.17;;;26.40;53.80;;;;;;21094623;28;20202;-71
2022/07/23 19:13:08;;;;;;;11.10;5.10;;;26.20;54.30;;;;;;21010781;28;20203;-71
2022/07/23 19:23:10;;;;;;;13.97;5.23;;;26.00;55.00;;;;;;21006947;28;20207;-69
2022/07/23 19:33:12;;;;;;;13.30;5.03;;;25.90;55.50;;;;;;21006890;28;20211;-68
2022/07/23 19:43:13;;;;;;;13.70;5.27;;;25.80;55.70;;;;;;21031631;28;20687;-70
2022/07/23 19:53:15;;;;;;;10.03;7.60;;;25.60;55.90;;;;;;21083795;28;20665;-70
2022/07/23 20:03:18;;;;;;;9.97;5.80;;;25.50;56.30;;;;;;21082877;28;20217;-68
2022/07/23 20:13:20;;;;;;;9.73;6.60;;;25.40;56.70;;;;;;21082478;28;20210;-69
2022/07/23 20:23:22;;;;;;;6.80;5.00;;;25.20;57.00;;;;;;21081790;28;20684;-68
2022/07/23 20:33:24;;;;;;;7.97;5.50;;;25.00;58.30;;;;;;21081458;28;20207;-70
2022/07/23 20:43:26;;;;;;;12.83;5.13;;;24.70;59.80;;;;;;20995134;28;1021335;-70
2022/07/23 20:53:28;;;;;;;5.90;5.30;;;24.50;60.30;;;;;;20998521;28;20207;-67
2022/07/23 21:03:30;;;;;;;9.07;5.73;;;24.40;60.70;;;;;;21001327;28;20238;-68
2022/07/23 21:13:32;;;;;;;7.80;6.00;;;24.20;61.30;;;;;;21001764;28;20261;-66
2022/07/23 21:23:51;;;;;;;6.87;6.17;;;23.90;61.70;;;;;;21002413;28;20234;-67
2022/07/23 21:33:53;;;;;;;9.37;6.20;;;23.80;62.80;;;;;;21013763;28;20202;-66
2022/07/23 21:43:56;;;;;;;10.23;5.83;;;23.60;63.80;;;;;;21078196;28;20238;-67
2022/07/23 21:53:58;;;;;;;8.23;5.80;;;23.40;64.80;;;;;;21080873;28;20208;-67
2022/07/23 22:04:01;;;;;;;7.43;5.87;;;23.20;65.30;;;;;;21080297;28;20256;-67
2022/07/23 22:14:03;;;;;;;6.93;5.87;;;23.00;65.60;;;;;;21080061;28;20208;-67
2022/07/23 22:24:05;;;;;;;6.17;5.47;;;22.80;66.10;;;;;;21078926;28;20265;-65
2022/07/23 22:34:07;;;;;;;8.97;5.70;;;22.70;66.90;;;;;;21078739;28;20207;-66
2022/07/23 22:44:08;;;;;;;9.77;6.23;;;22.50;67.80;;;;;;21078391;28;20230;-66
2022/07/23 22:54:10;;;;;;;6.97;6.10;;;22.30;68.40;;;;;;21077869;28;20210;-66
2022/07/23 23:04:12;;;;;;;10.20;6.17;;;22.10;69.30;;;;;;21077457;28;20231;-67
2022/07/23 23:14:14;;;;;;;7.97;5.90;;;22.00;70.30;;;;;;21077663;28;20669;-69
2022/07/23 23:24:16;;;;;;;7.80;6.30;;;22.10;71.20;;;;;;21076734;28;20712;-67
2022/07/23 23:34:18;;;;;;;6.40;5.80;;;22.10;71.60;;;;;;21075925;28;20657;-67
2022/07/23 23:44:21;;;;;;;7.80;6.03;;;22.00;71.90;;;;;;21088548;28;20250;-67
2022/07/23 23:54:23;;;;;;;7.33;6.50;;;21.80;72.20;;;;;;21089589;28;20203;-66
